createdAt,value
2022-08-17T00:00:34.221Z,99.90
2022-08-17T00:03:17.214Z,99.90
2022-08-17T00:06:04.895Z,99.90
2022-08-17T00:08:37.809Z,99.90
2022-08-17T00:11:09.300Z,99.90
2022-08-17T00:13:42.197Z,99.90
2022-08-17T00:16:16.381Z,99.90
2022-08-17T00:19:01.925Z,99.90
2022-08-17T00:22:30.842Z,99.90
2022-08-17T00:24:19.609Z,99.90
2022-08-17T00:26:47.579Z,99.90
2022-08-17T00:29:19.997Z,99.90
2022-08-17T00:31:47.758Z,99.90
2022-08-17T00:34:14.930Z,99.90
2022-08-17T00:36:42.158Z,99.90
2022-08-17T00:39:09.379Z,99.90
2022-08-17T00:41:36.658Z,99.90
2022-08-17T00:44:09.923Z,99.90
2022-08-17T00:46:40.710Z,99.90
2022-08-17T00:49:10.466Z,99.90
2022-08-17T00:52:00.821Z,99.90
2022-08-17T00:54:33.505Z,99.90
2022-08-17T00:57:15.292Z,99.90
2022-08-17T01:00:02.430Z,99.90
2022-08-17T01:02:42.236Z,99.90
2022-08-17T01:05:25.399Z,99.90
2022-08-17T01:07:54.512Z,99.90
2022-08-17T01:10:57.244Z,99.90
2022-08-17T01:13:15.161Z,99.90
2022-08-17T01:15:48.485Z,99.90
2022-08-17T01:18:16.865Z,99.90
2022-08-17T01:20:53.079Z,99.90
2022-08-17T01:23:23.764Z,99.90
2022-08-17T01:25:53.666Z,99.90
2022-08-17T01:28:53.122Z,99.90
2022-08-17T01:31:09.511Z,99.90
2022-08-17T01:33:37.362Z,99.90
2022-08-17T01:36:07.355Z,99.90
2022-08-17T01:38:36.659Z,99.90
2022-08-17T01:41:11.451Z,99.90
2022-08-17T01:43:51.205Z,99.90
2022-08-17T01:46:25.242Z,99.90
2022-08-17T01:48:52.714Z,99.90
2022-08-17T01:51:20.742Z,99.90
2022-08-17T01:53:58.567Z,99.90
2022-08-17T01:56:28.888Z,99.90
2022-08-17T01:58:56.788Z,99.90
2022-08-17T02:01:29.453Z,99.90
2022-08-17T02:04:00.754Z,99.90
2022-08-17T02:06:52.782Z,99.90
2022-08-17T02:09:23.433Z,99.90
2022-08-17T02:11:55.191Z,99.90
2022-08-17T02:14:24.330Z,99.90
2022-08-17T02:16:52.111Z,99.90
2022-08-17T02:19:20.049Z,99.90
2022-08-17T02:21:50.213Z,99.90
2022-08-17T02:24:59.384Z,99.90
2022-08-17T02:27:13.217Z,99.90
2022-08-17T02:29:40.403Z,99.90
2022-08-17T02:32:15.560Z,99.90
2022-08-17T02:34:52.907Z,99.90
2022-08-17T02:37:20.084Z,99.90
2022-08-17T02:39:47.959Z,99.90
2022-08-17T02:42:15.691Z,99.90
2022-08-17T02:44:43.030Z,99.90
2022-08-17T02:47:11.608Z,99.90
2022-08-17T02:49:38.858Z,99.90
2022-08-17T02:52:07.914Z,99.90
2022-08-17T02:54:40.871Z,99.90
2022-08-17T02:57:10.586Z,99.90
2022-08-17T02:59:46.795Z,99.90
2022-08-17T03:02:16.134Z,99.90
2022-08-17T03:04:43.402Z,99.90
2022-08-17T03:07:10.603Z,99.90
2022-08-17T03:09:37.989Z,99.90
2022-08-17T03:12:07.411Z,99.90
2022-08-17T03:14:41.319Z,99.90
2022-08-17T03:17:10.743Z,99.90
2022-08-17T03:19:42.219Z,99.90
2022-08-17T03:22:35.848Z,99.90
2022-08-17T03:24:58.585Z,99.90
2022-08-17T03:27:25.783Z,99.90
2022-08-17T03:29:53.403Z,99.90
2022-08-17T03:32:20.909Z,99.90
2022-08-17T03:34:48.213Z,99.90
2022-08-17T03:37:15.523Z,99.90
2022-08-17T03:39:43.197Z,99.90
2022-08-17T03:42:31.870Z,99.90
2022-08-17T03:45:02.408Z,99.90
2022-08-17T03:47:48.182Z,99.90
2022-08-17T03:50:19.595Z,99.90
2022-08-17T03:53:09.042Z,99.90
2022-08-17T03:55:55.766Z,99.90
2022-08-17T03:58:23.026Z,99.90
2022-08-17T04:00:51.080Z,99.90
2022-08-17T04:03:19.086Z,99.90
2022-08-17T04:05:46.337Z,99.90
2022-08-17T04:08:13.614Z,99.90
2022-08-17T04:10:44.873Z,99.90
2022-08-17T04:13:12.627Z,99.90
2022-08-17T04:15:40.086Z,99.90
2022-08-17T04:18:07.713Z,99.90
2022-08-17T04:20:38.351Z,99.90
2022-08-17T04:23:17.079Z,99.90
2022-08-17T04:25:49.940Z,99.90
2022-08-17T04:28:19.434Z,99.90
2022-08-17T04:30:48.369Z,99.90
2022-08-17T04:33:18.864Z,99.90
2022-08-17T04:35:49.142Z,99.90
2022-08-17T04:38:17.379Z,99.90
2022-08-17T04:41:03.941Z,99.90
2022-08-17T04:43:32.754Z,99.90
2022-08-17T04:46:07.357Z,99.90
2022-08-17T04:48:37.722Z,99.90
2022-08-17T04:51:33.211Z,99.90
2022-08-17T04:54:10.821Z,99.90
2022-08-17T04:56:38.652Z,99.90
2022-08-17T04:59:09.843Z,99.90
2022-08-17T05:01:38.972Z,99.90
2022-08-17T05:04:32.133Z,99.90
2022-08-17T05:06:56.747Z,99.90
2022-08-17T05:09:23.938Z,99.90
2022-08-17T05:11:51.466Z,99.90
2022-08-17T05:14:18.643Z,99.90
2022-08-17T05:16:48.395Z,99.90
2022-08-17T05:19:15.479Z,99.90
2022-08-17T05:21:42.706Z,99.90
2022-08-17T05:24:20.272Z,99.90
2022-08-17T05:26:58.041Z,99.90
2022-08-17T05:29:33.747Z,99.90
2022-08-17T05:32:47.896Z,99.90
2022-08-17T05:35:00.879Z,99.90
2022-08-17T05:37:28.342Z,99.90
2022-08-17T05:39:55.653Z,99.90
2022-08-17T05:42:23.393Z,99.90
2022-08-17T05:44:50.584Z,99.90
2022-08-17T05:47:18.815Z,99.90
2022-08-17T05:49:49.118Z,99.90
2022-08-17T05:52:38.449Z,99.90
2022-08-17T05:55:17.765Z,99.90
2022-08-17T05:58:15.470Z,99.90
2022-08-17T06:00:56.167Z,99.90
2022-08-17T06:04:05.226Z,99.90
2022-08-17T06:06:54.286Z,99.90
2022-08-17T06:09:40.758Z,99.90
2022-08-17T06:12:37.378Z,99.90
2022-08-17T06:15:32.220Z,99.90
2022-08-17T06:18:04.395Z,99.90
2022-08-17T06:20:56.620Z,99.90
2022-08-17T06:23:40.780Z,99.90
2022-08-17T06:26:20.482Z,99.90
2022-08-17T06:29:18.546Z,99.90
2022-08-17T06:31:46.577Z,99.90
2022-08-17T06:34:15.223Z,99.90
2022-08-17T06:37:01.966Z,99.90
2022-08-17T06:39:53.375Z,94.50
2022-08-17T06:43:05.916Z,95.40
2022-08-17T06:45:39.746Z,94.30
2022-08-17T06:48:34.234Z,93.60
2022-08-17T06:51:14.864Z,91.30
2022-08-17T06:54:05.663Z,92.10
2022-08-17T06:57:18.357Z,93.50
2022-08-17T06:59:56.759Z,90.10
2022-08-17T07:02:52.918Z,90.50
2022-08-17T07:05:53.961Z,94.70
2022-08-17T07:08:40.116Z,81.80
2022-08-17T07:11:34.110Z,92.00
2022-08-17T07:14:26.009Z,90.50
2022-08-17T07:16:56.461Z,82.20
2022-08-17T07:19:27.813Z,84.10
2022-08-17T07:22:19.460Z,79.20
2022-08-17T07:25:02.690Z,86.80
2022-08-17T07:27:33.062Z,89.50
2022-08-17T07:30:10.350Z,81.60
2022-08-17T07:32:47.141Z,76.80
2022-08-17T07:35:20.027Z,75.30
2022-08-17T07:37:55.804Z,76.20
2022-08-17T07:40:30.939Z,76.30
2022-08-17T07:43:23.203Z,76.50
2022-08-17T07:46:16.900Z,75.60
2022-08-17T07:48:49.848Z,75.10
2022-08-17T07:51:25.707Z,75.00
2022-08-17T07:54:13.471Z,75.50
2022-08-17T07:56:54.408Z,74.30
2022-08-17T07:59:27.241Z,75.80
2022-08-17T08:02:08.209Z,70.30
2022-08-17T08:05:06.543Z,74.10
2022-08-17T08:07:58.001Z,72.50
2022-08-17T08:10:36.325Z,69.30
2022-08-17T08:13:28.964Z,69.80
2022-08-17T08:16:17.456Z,70.70
2022-08-17T08:18:55.852Z,71.10
2022-08-17T08:21:42.911Z,69.40
2022-08-17T08:24:21.882Z,68.50
2022-08-17T08:27:08.249Z,67.90
2022-08-17T08:29:53.363Z,65.90
2022-08-17T08:32:25.906Z,68.80
2022-08-17T08:35:02.490Z,66.80
2022-08-17T08:38:00.511Z,65.50
2022-08-17T08:40:39.748Z,66.20
2022-08-17T08:43:27.725Z,66.80
2022-08-17T08:46:03.112Z,67.20
2022-08-17T08:49:09.971Z,63.40
2022-08-17T08:52:03.203Z,62.60
2022-08-17T08:54:46.220Z,61.30
2022-08-17T08:57:29.033Z,60.10
2022-08-17T09:00:16.938Z,60.80
2022-08-17T09:03:05.501Z,60.20
2022-08-17T09:05:39.555Z,61.20
2022-08-17T09:08:28.412Z,63.70
2022-08-17T09:11:13.525Z,62.10
2022-08-17T09:14:21.508Z,63.70
2022-08-17T09:17:25.587Z,61.90
2022-08-17T09:20:00.271Z,57.20
2022-08-17T09:22:43.240Z,57.50
2022-08-17T09:25:21.910Z,56.30
2022-08-17T09:28:00.704Z,57.80
2022-08-17T09:30:36.432Z,59.20
2022-08-17T09:33:08.403Z,60.90
2022-08-17T09:35:44.665Z,57.80
2022-08-17T09:38:47.452Z,59.80
2022-08-17T09:41:51.742Z,57.40
2022-08-17T09:44:28.711Z,57.10
2022-08-17T09:47:45.590Z,55.60
2022-08-17T09:51:04.850Z,53.20
2022-08-17T09:53:12.176Z,57.90
2022-08-17T09:56:06.968Z,59.10
2022-08-17T09:58:50.594Z,60.10
2022-08-17T10:01:31.985Z,55.80
2022-08-17T10:04:19.970Z,55.00
2022-08-17T10:06:50.459Z,53.90
2022-08-17T10:09:36.097Z,53.40
2022-08-17T10:12:29.880Z,52.30
2022-08-17T10:15:15.855Z,53.10
2022-08-17T10:17:44.523Z,51.70
2022-08-17T10:20:28.359Z,52.80
2022-08-17T10:23:25.348Z,53.80
2022-08-17T10:26:15.762Z,52.10
2022-08-17T10:29:12.772Z,55.40
2022-08-17T10:31:47.682Z,52.30
2022-08-17T10:34:20.713Z,53.30
2022-08-17T10:36:59.190Z,53.10
2022-08-17T10:39:52.482Z,56.90
2022-08-17T10:42:35.624Z,52.10
2022-08-17T10:45:15.485Z,51.50
2022-08-17T10:48:07.501Z,52.30
2022-08-17T10:50:57.711Z,50.30
2022-08-17T10:53:38.939Z,53.10
2022-08-17T10:56:13.652Z,52.50
2022-08-17T10:58:46.650Z,49.50
2022-08-17T11:01:13.977Z,52.40
2022-08-17T11:03:56.949Z,49.50
2022-08-17T11:06:42.069Z,50.10
2022-08-17T11:09:46.330Z,49.00
2022-08-17T11:12:36.982Z,48.70
2022-08-17T11:15:44.148Z,48.50
2022-08-17T11:18:29.094Z,49.20
2022-08-17T11:21:17.580Z,49.00
2022-08-17T11:24:03.142Z,48.60
2022-08-17T11:26:36.280Z,45.90
2022-08-17T11:29:17.040Z,49.00
2022-08-17T11:31:58.579Z,46.30
2022-08-17T11:34:29.090Z,48.50
2022-08-17T11:37:45.025Z,47.10
2022-08-17T11:40:38.620Z,48.40
2022-08-17T11:43:14.509Z,49.80
2022-08-17T11:46:02.437Z,48.30
2022-08-17T11:48:59.539Z,50.10
2022-08-17T11:52:01.626Z,47.60
2022-08-17T11:54:34.130Z,47.70
2022-08-17T11:57:27.550Z,44.20
2022-08-17T11:59:54.679Z,45.60
2022-08-17T12:02:35.197Z,46.00
2022-08-17T12:05:17.149Z,45.30
2022-08-17T12:07:49.480Z,46.40
2022-08-17T12:10:21.849Z,46.20
2022-08-17T12:12:53.291Z,46.80
2022-08-17T12:15:28.980Z,44.80
2022-08-17T12:17:57.335Z,45.60
2022-08-17T12:20:35.356Z,46.00
2022-08-17T12:23:41.902Z,44.70
2022-08-17T12:26:19.993Z,43.90
2022-08-17T12:29:02.080Z,46.00
2022-08-17T12:31:43.731Z,43.90
2022-08-17T12:34:24.331Z,43.20
2022-08-17T12:36:54.529Z,46.00
2022-08-17T12:39:25.004Z,45.00
2022-08-17T12:42:01.943Z,43.90
2022-08-17T12:44:31.332Z,44.50
2022-08-17T12:47:21.815Z,45.60
2022-08-17T12:49:55.030Z,46.70
2022-08-17T12:52:28.639Z,43.10
2022-08-17T12:55:13.740Z,41.00
2022-08-17T12:57:54.684Z,43.80
2022-08-17T13:00:30.401Z,45.10
2022-08-17T13:03:19.590Z,44.40
2022-08-17T13:05:52.611Z,42.10
2022-08-17T13:08:32.469Z,43.30
2022-08-17T13:11:04.635Z,43.90
2022-08-17T13:13:35.503Z,43.00
2022-08-17T13:16:18.047Z,41.70
2022-08-17T13:18:54.820Z,41.20
2022-08-17T13:21:27.259Z,41.70
2022-08-17T13:24:08.000Z,40.90
2022-08-17T13:26:39.317Z,40.80
2022-08-17T13:29:37.229Z,39.60
2022-08-17T13:32:13.205Z,41.00
2022-08-17T13:35:11.931Z,41.20
2022-08-17T13:37:37.602Z,40.70
2022-08-17T13:40:10.708Z,40.70
2022-08-17T13:42:52.655Z,38.60
2022-08-17T13:45:39.419Z,42.00
2022-08-17T13:48:13.853Z,41.40
2022-08-17T13:50:43.699Z,42.50
2022-08-17T13:53:20.832Z,38.50
2022-08-17T13:56:31.769Z,43.60
2022-08-17T13:59:11.701Z,41.20
2022-08-17T14:01:53.602Z,40.90
2022-08-17T14:04:32.062Z,41.10
2022-08-17T14:07:28.660Z,39.10
2022-08-17T14:10:07.110Z,40.80
2022-08-17T14:12:37.763Z,41.90
2022-08-17T14:15:05.559Z,41.00
2022-08-17T14:17:47.074Z,40.60
2022-08-17T14:20:15.508Z,40.70
2022-08-17T14:22:50.762Z,40.90
2022-08-17T14:25:21.022Z,39.90
2022-08-17T14:27:52.167Z,41.10
2022-08-17T14:30:23.430Z,42.30
2022-08-17T14:32:52.175Z,40.10
2022-08-17T14:35:22.690Z,39.90
2022-08-17T14:37:51.227Z,40.40
2022-08-17T14:40:20.989Z,41.40
2022-08-17T14:42:48.401Z,41.90
2022-08-17T14:45:29.957Z,41.80
2022-08-17T14:48:02.210Z,42.10
2022-08-17T14:50:29.360Z,41.50
2022-08-17T14:52:58.166Z,41.30
2022-08-17T14:55:26.865Z,42.10
2022-08-17T14:57:54.057Z,43.20
2022-08-17T15:00:21.352Z,43.20
2022-08-17T15:02:56.003Z,41.60
2022-08-17T15:05:26.629Z,42.00
2022-08-17T15:07:53.985Z,40.80
2022-08-17T15:10:22.072Z,41.30
2022-08-17T15:12:49.423Z,42.60
2022-08-17T15:15:18.131Z,44.30
2022-08-17T15:17:46.222Z,44.60
2022-08-17T15:20:19.609Z,45.80
2022-08-17T15:22:51.505Z,44.40
2022-08-17T15:25:19.245Z,45.00
2022-08-17T15:27:47.567Z,46.30
2022-08-17T15:30:15.851Z,43.90
2022-08-17T15:32:51.489Z,42.80
2022-08-17T15:35:27.937Z,42.40
2022-08-17T15:38:11.561Z,43.20
2022-08-17T15:40:43.087Z,44.40
2022-08-17T15:43:16.302Z,44.90
2022-08-17T15:45:44.712Z,43.80
2022-08-17T15:48:40.836Z,44.20
2022-08-17T15:51:16.075Z,45.00
2022-08-17T15:53:45.494Z,46.40
2022-08-17T15:56:15.136Z,44.30
2022-08-17T15:58:44.324Z,42.80
2022-08-17T16:01:17.029Z,42.40
2022-08-17T16:04:04.803Z,41.80
2022-08-17T16:06:36.769Z,41.90
2022-08-17T16:09:04.769Z,41.70
2022-08-17T16:11:31.890Z,44.50
2022-08-17T16:13:59.089Z,45.30
2022-08-17T16:16:26.383Z,43.70
2022-08-17T16:18:56.340Z,43.40
2022-08-17T16:21:26.923Z,42.40
2022-08-17T16:24:04.408Z,43.50
2022-08-17T16:26:33.898Z,45.20
2022-08-17T16:29:03.906Z,45.30
2022-08-17T16:31:31.461Z,46.10
2022-08-17T16:34:16.085Z,46.40
2022-08-17T16:36:54.936Z,44.50
2022-08-17T16:39:29.269Z,45.60
2022-08-17T16:41:57.403Z,47.30
2022-08-17T16:44:26.107Z,48.40
2022-08-17T16:46:53.761Z,47.90
2022-08-17T16:49:36.551Z,48.20
2022-08-17T16:52:10.303Z,48.40
2022-08-17T16:54:39.748Z,48.40
2022-08-17T16:57:07.065Z,49.10
2022-08-17T16:59:42.146Z,50.70
2022-08-17T17:02:16.686Z,51.00
2022-08-17T17:05:08.859Z,51.90
2022-08-17T17:07:55.725Z,53.50
2022-08-17T17:10:37.470Z,54.90
2022-08-17T17:13:08.670Z,56.00
2022-08-17T17:16:21.924Z,57.60
2022-08-17T17:19:15.338Z,59.00
2022-08-17T17:22:08.749Z,61.10
2022-08-17T17:25:00.519Z,62.30
2022-08-17T17:27:33.865Z,64.20
2022-08-17T17:30:07.615Z,65.40
2022-08-17T17:32:52.498Z,65.40
2022-08-17T17:35:23.619Z,65.70
2022-08-17T17:37:53.142Z,66.00
2022-08-17T17:40:40.498Z,67.00
2022-08-17T17:43:36.977Z,67.60
2022-08-17T17:46:27.103Z,69.00
2022-08-17T17:48:57.121Z,70.40
2022-08-17T17:51:55.712Z,70.70
2022-08-17T17:54:38.888Z,71.30
2022-08-17T17:57:08.798Z,72.30
2022-08-17T18:00:06.207Z,73.30
2022-08-17T18:02:57.899Z,74.90
2022-08-17T18:06:06.090Z,76.20
2022-08-17T18:08:45.692Z,77.50
2022-08-17T18:11:25.210Z,79.20
2022-08-17T18:14:30.596Z,82.90
2022-08-17T18:17:00.520Z,86.90
2022-08-17T18:19:30.308Z,89.80
2022-08-17T18:22:21.709Z,90.40
2022-08-17T18:24:57.355Z,91.10
2022-08-17T18:27:36.882Z,92.50
2022-08-17T18:30:28.091Z,93.80
2022-08-17T18:33:24.068Z,95.00
2022-08-17T18:35:58.868Z,95.90
2022-08-17T18:38:35.149Z,97.40
2022-08-17T18:41:05.610Z,97.30
2022-08-17T18:43:53.052Z,97.10
2022-08-17T18:46:29.990Z,97.50
2022-08-17T18:49:08.219Z,98.70
2022-08-17T18:51:43.154Z,99.70
2022-08-17T18:54:18.737Z,99.90
2022-08-17T18:57:04.200Z,99.90
2022-08-17T18:59:49.569Z,99.90
2022-08-17T19:02:45.684Z,99.90
2022-08-17T19:05:31.241Z,99.90
2022-08-17T19:08:29.449Z,99.90
2022-08-17T19:11:10.189Z,99.90
2022-08-17T19:13:46.036Z,99.90
2022-08-17T19:16:22.386Z,99.90
2022-08-17T19:18:54.579Z,99.90
2022-08-17T19:21:24.180Z,99.90
2022-08-17T19:24:03.190Z,99.90
2022-08-17T19:26:53.637Z,99.90
2022-08-17T19:29:34.207Z,99.90
2022-08-17T19:32:02.396Z,99.90
2022-08-17T19:34:34.825Z,99.90
2022-08-17T19:37:42.586Z,99.90
2022-08-17T19:40:53.452Z,99.90
2022-08-17T19:43:49.171Z,99.90
2022-08-17T19:46:29.581Z,99.90
2022-08-17T19:49:21.085Z,99.90
2022-08-17T19:52:02.037Z,99.90
2022-08-17T19:54:40.191Z,99.90
2022-08-17T19:57:32.085Z,99.90
2022-08-17T20:00:07.960Z,99.90
2022-08-17T20:02:59.835Z,99.90
2022-08-17T20:05:54.465Z,99.90
2022-08-17T20:08:29.195Z,99.90
2022-08-17T20:11:07.156Z,99.90
2022-08-17T20:13:41.453Z,99.90
2022-08-17T20:16:10.365Z,99.90
2022-08-17T20:18:52.572Z,99.90
2022-08-17T20:21:31.692Z,99.90
2022-08-17T20:24:37.935Z,99.90
2022-08-17T20:27:22.525Z,99.90
2022-08-17T20:30:30.365Z,99.90
2022-08-17T20:32:58.971Z,99.90
2022-08-17T20:35:32.761Z,99.90
2022-08-17T20:38:03.631Z,99.90
2022-08-17T20:40:39.611Z,99.90
2022-08-17T20:43:37.727Z,99.90
2022-08-17T20:46:35.951Z,99.90
2022-08-17T20:49:09.092Z,99.90
2022-08-17T20:52:02.186Z,99.90
2022-08-17T20:54:47.078Z,99.90
2022-08-17T20:57:32.525Z,99.90
2022-08-17T21:00:25.432Z,99.90
2022-08-17T21:03:26.724Z,99.90
2022-08-17T21:06:00.230Z,99.90
2022-08-17T21:08:32.338Z,99.90
2022-08-17T21:11:01.864Z,99.90
2022-08-17T21:13:35.663Z,99.90
2022-08-17T21:16:25.923Z,99.90
2022-08-17T21:19:10.318Z,99.90
2022-08-17T21:21:48.222Z,99.90
2022-08-17T21:24:33.305Z,99.90
2022-08-17T21:27:05.592Z,99.90
2022-08-17T21:29:34.016Z,99.90
2022-08-17T21:32:09.018Z,99.90
2022-08-17T21:34:44.916Z,99.90
2022-08-17T21:37:26.318Z,99.90
2022-08-17T21:40:18.823Z,99.90
2022-08-17T21:42:53.929Z,99.90
2022-08-17T21:45:31.203Z,99.90
2022-08-17T21:48:11.261Z,99.90
2022-08-17T21:50:41.853Z,99.90
2022-08-17T21:53:18.208Z,99.90
2022-08-17T21:55:50.451Z,99.90
2022-08-17T21:58:35.725Z,99.90
2022-08-17T22:01:10.806Z,99.90
2022-08-17T22:03:38.877Z,99.90
2022-08-17T22:06:27.679Z,99.90
2022-08-17T22:09:31.937Z,99.90
2022-08-17T22:12:13.243Z,99.90
2022-08-17T22:14:53.027Z,99.90
2022-08-17T22:17:30.203Z,99.90
2022-08-17T22:20:14.830Z,99.90
2022-08-17T22:23:20.724Z,99.90
2022-08-17T22:26:09.551Z,99.90
2022-08-17T22:28:49.106Z,99.90
2022-08-17T22:31:22.618Z,99.90
2022-08-17T22:34:15.918Z,99.90
2022-08-17T22:36:43.467Z,99.90
2022-08-17T22:39:10.641Z,99.90
2022-08-17T22:41:41.402Z,99.90
2022-08-17T22:44:28.563Z,99.90
2022-08-17T22:47:00.297Z,99.90
2022-08-17T22:49:57.990Z,99.90
2022-08-17T22:53:01.085Z,99.90
2022-08-17T22:55:50.258Z,99.90
2022-08-17T22:58:40.597Z,99.90
2022-08-17T23:01:33.518Z,99.90
2022-08-17T23:04:08.786Z,99.90
2022-08-17T23:06:38.769Z,99.90
2022-08-17T23:09:07.538Z,99.90
2022-08-17T23:11:58.811Z,99.90
2022-08-17T23:14:31.844Z,99.90
2022-08-17T23:16:59.566Z,99.90
2022-08-17T23:19:28.199Z,99.90
2022-08-17T23:21:56.620Z,99.90
2022-08-17T23:24:27.315Z,99.90
2022-08-17T23:26:57.467Z,99.90
2022-08-17T23:29:25.048Z,99.90
2022-08-17T23:31:53.135Z,99.90
2022-08-17T23:34:20.655Z,99.90
2022-08-17T23:36:52.952Z,99.90
2022-08-17T23:39:24.739Z,99.90
2022-08-17T23:41:59.622Z,99.90
2022-08-17T23:44:29.021Z,99.90
2022-08-17T23:46:56.515Z,99.90
2022-08-17T23:49:25.363Z,99.90
2022-08-17T23:51:54.893Z,99.90
2022-08-17T23:54:41.694Z,99.90
2022-08-17T23:57:09.457Z,99.90
2022-08-17T23:59:37.339Z,99.90
